createdAt,value
2022-12-02T00:02:35.000Z,-13.25
2022-12-02T00:07:34.000Z,-13.11
2022-12-02T00:12:35.000Z,-13.2
2022-12-02T00:17:34.000Z,-13.15
2022-12-02T00:22:35.000Z,-12.94
2022-12-02T00:27:35.000Z,-12.84
2022-12-02T00:32:34.000Z,-12.84
2022-12-02T00:37:35.000Z,-12.93
2022-12-02T00:42:34.000Z,-13.04
2022-12-02T00:47:35.000Z,-12.95
2022-12-02T00:52:34.000Z,-12.84
2022-12-02T00:57:35.000Z,-12.91
2022-12-02T01:02:34.000Z,-13.01
2022-12-02T01:07:35.000Z,-12.96
2022-12-02T01:12:35.000Z,-12.91
2022-12-02T01:17:35.000Z,-12.92
2022-12-02T01:22:35.000Z,-12.7
2022-12-02T01:27:34.000Z,-12.78
2022-12-02T01:32:35.000Z,-12.76
2022-12-02T01:37:34.000Z,-12.8
2022-12-02T01:42:35.000Z,-12.8
2022-12-02T01:47:35.000Z,-12.87
2022-12-02T01:52:34.000Z,-12.82
2022-12-02T01:57:35.000Z,-12.87
2022-12-02T02:02:35.000Z,-12.81
2022-12-02T02:07:35.000Z,-12.81
2022-12-02T02:12:35.000Z,-12.71
2022-12-02T02:17:34.000Z,-12.75
2022-12-02T02:22:35.000Z,-12.83
2022-12-02T02:27:34.000Z,-12.68
2022-12-02T02:32:35.000Z,-12.52
2022-12-02T02:37:34.000Z,-12.7
2022-12-02T02:42:35.000Z,-12.81
2022-12-02T02:47:34.000Z,-12.71
2022-12-02T02:52:35.000Z,-12.71
2022-12-02T02:57:34.000Z,-12.85
2022-12-02T03:02:34.000Z,-12.77
2022-12-02T03:07:35.000Z,-12.77
2022-12-02T03:12:34.000Z,-12.76
2022-12-02T03:17:34.000Z,-12.8
2022-12-02T03:22:35.000Z,-12.68
2022-12-02T03:27:35.000Z,-12.72
2022-12-02T03:32:35.000Z,-12.72
2022-12-02T03:37:34.000Z,-12.49
2022-12-02T03:42:35.000Z,-12.19
2022-12-02T03:47:35.000Z,-12.17
2022-12-02T03:52:35.000Z,-12.19
2022-12-02T04:02:35.000Z,-12.4
2022-12-02T04:07:35.000Z,-12.37
2022-12-02T04:12:35.000Z,-12.37
2022-12-02T04:17:35.000Z,-12.47
2022-12-02T04:22:34.000Z,-12.53
2022-12-02T04:27:35.000Z,-12.43
2022-12-02T04:32:35.000Z,-12.52
2022-12-02T04:37:34.000Z,-12.57
2022-12-02T04:42:35.000Z,-12.61
2022-12-02T04:47:34.000Z,-12.79
2022-12-02T04:52:35.000Z,-12.77
2022-12-02T04:57:41.000Z,-12.55
2022-12-02T05:07:34.000Z,-12.2
2022-12-02T05:12:34.000Z,-12.18
2022-12-02T05:17:34.000Z,-12.01
2022-12-02T05:22:34.000Z,-12.01
2022-12-02T05:27:35.000Z,-11.98
2022-12-02T05:32:34.000Z,-12.12
2022-12-02T05:37:35.000Z,-12.32
2022-12-02T05:42:35.000Z,-12.39
2022-12-02T05:47:35.000Z,-12.35
2022-12-02T05:57:38.000Z,-12.12
2022-12-02T06:02:35.000Z,-12.12
2022-12-02T06:07:35.000Z,-12.01
2022-12-02T06:12:34.000Z,-11.95
2022-12-02T06:17:35.000Z,-11.92
2022-12-02T06:22:35.000Z,-12.08
2022-12-02T06:27:34.000Z,-12.12
2022-12-02T06:32:35.000Z,-12.09
2022-12-02T06:37:35.000Z,-12.06
2022-12-02T06:42:34.000Z,-12.06
2022-12-02T06:47:35.000Z,-11.69
2022-12-02T06:52:35.000Z,-11.44
2022-12-02T06:57:34.000Z,-11.16
2022-12-02T07:02:35.000Z,-10.38
2022-12-02T07:07:35.000Z,-9.95
2022-12-02T07:12:34.000Z,-9.88
2022-12-02T07:17:35.000Z,-9.7
2022-12-02T07:22:35.000Z,-9.36
2022-12-02T07:27:35.000Z,-9.32
2022-12-02T07:32:34.000Z,-9.06
2022-12-02T07:37:35.000Z,-8.08
2022-12-02T07:42:34.000Z,-6.64
2022-12-02T07:47:35.000Z,-6.64
2022-12-02T07:52:34.000Z,-6.14
2022-12-02T07:57:35.000Z,-6.14
2022-12-02T08:02:34.000Z,-5.56
2022-12-02T08:07:35.000Z,-5.56
2022-12-02T08:22:35.000Z,-4.49
2022-12-02T08:27:34.000Z,-4.49
2022-12-02T08:32:35.000Z,-7.21
2022-12-02T08:37:35.000Z,-7.21
2022-12-02T08:42:35.000Z,-7.07
2022-12-02T08:47:35.000Z,-7.07
2022-12-02T08:52:35.000Z,-7.71
2022-12-02T08:57:34.000Z,-7.44
2022-12-02T09:02:34.000Z,-7.44
2022-12-02T09:07:35.000Z,-8.02
2022-12-02T09:12:34.000Z,-8.37
2022-12-02T09:17:34.000Z,-8.51
2022-12-02T09:22:35.000Z,-8.3
2022-12-02T09:27:35.000Z,-8.15
2022-12-02T09:37:35.000Z,-8.45
2022-12-02T09:42:34.000Z,-8.51
2022-12-02T09:47:34.000Z,-8.56
2022-12-02T09:52:36.000Z,-8.69
2022-12-02T09:57:34.000Z,-8.69
2022-12-02T10:02:34.000Z,-8.66
2022-12-02T10:12:34.000Z,-8.57
2022-12-02T10:17:35.000Z,-8.78
2022-12-02T10:22:34.000Z,-8.92
2022-12-02T10:27:35.000Z,-8.89
2022-12-02T10:32:35.000Z,-8.84
2022-12-02T10:37:34.000Z,-8.63
2022-12-02T10:42:35.000Z,-8.63
2022-12-02T10:52:34.000Z,-8.85
2022-12-02T10:57:35.000Z,-8.86
2022-12-02T11:02:34.000Z,-8.89
2022-12-02T11:07:34.000Z,-8.89
2022-12-02T11:12:34.000Z,-8.78
2022-12-02T11:17:34.000Z,-8.72
2022-12-02T11:22:34.000Z,-8.66
2022-12-02T11:27:35.000Z,-8.66
2022-12-02T11:32:34.000Z,-8.69
2022-12-02T11:37:35.000Z,-8.83
2022-12-02T11:42:35.000Z,-8.87
2022-12-02T11:52:35.000Z,-9.23
2022-12-02T11:57:35.000Z,-9.31
2022-12-02T12:02:35.000Z,-9.53
2022-12-02T12:07:34.000Z,-9.53
2022-12-02T12:12:34.000Z,-9.66
2022-12-02T12:17:34.000Z,-9.66
2022-12-02T12:42:34.000Z,-9.72
2022-12-02T12:47:35.000Z,-9.72
2022-12-02T12:52:34.000Z,-10.48
2022-12-02T12:57:35.000Z,-10.48
2022-12-02T13:02:34.000Z,-10.78
2022-12-02T13:07:35.000Z,-10.78
2022-12-02T13:17:35.000Z,-10.95
2022-12-02T13:22:34.000Z,-10.95
2022-12-02T13:27:35.000Z,-11.15
2022-12-02T13:32:35.000Z,-11.15
2022-12-02T13:47:34.000Z,-11.6
2022-12-02T13:52:35.000Z,-11.56
2022-12-02T13:57:35.000Z,-11.44
2022-12-02T14:02:35.000Z,-11.38
2022-12-02T14:07:35.000Z,-11.4
2022-12-02T14:12:34.000Z,-11.42
2022-12-02T14:17:35.000Z,-11.38
2022-12-02T14:22:34.000Z,-11.39
2022-12-02T14:27:35.000Z,-11.39
2022-12-02T14:32:35.000Z,-11.58
2022-12-02T14:37:34.000Z,-11.68
2022-12-02T14:47:34.000Z,-11.71
2022-12-02T14:52:35.000Z,-11.5
2022-12-02T14:57:34.000Z,-11.44
2022-12-02T15:02:35.000Z,-11.38
2022-12-02T15:07:35.000Z,-11.37
2022-12-02T15:12:35.000Z,-11.46
2022-12-02T15:17:34.000Z,-11.58
2022-12-02T15:22:35.000Z,-11.58
2022-12-02T15:27:34.000Z,-11.65
2022-12-02T15:32:35.000Z,-11.55
2022-12-02T15:37:35.000Z,-11.49
2022-12-02T15:42:35.000Z,-11.61
2022-12-02T15:47:34.000Z,-11.64
2022-12-02T15:52:35.000Z,-11.62
2022-12-02T15:57:34.000Z,-11.56
2022-12-02T16:02:35.000Z,-11.59
2022-12-02T16:07:35.000Z,-11.64
2022-12-02T16:12:35.000Z,-11.66
2022-12-02T16:17:34.000Z,-11.65
2022-12-02T16:22:35.000Z,-11.68
2022-12-02T16:27:35.000Z,-11.68
2022-12-02T16:32:34.000Z,-11.68
2022-12-02T16:37:35.000Z,-11.7
2022-12-02T16:47:35.000Z,-11.72
2022-12-02T16:52:35.000Z,-11.69
2022-12-02T16:57:35.000Z,-11.66
2022-12-02T17:02:42.000Z,-11.59
2022-12-02T17:07:35.000Z,-11.56
2022-12-02T17:12:35.000Z,-11.58
2022-12-02T17:17:57.000Z,-11.56
2022-12-02T17:22:34.000Z,-11.56
2022-12-02T17:32:35.000Z,-11.48
2022-12-02T17:37:34.000Z,-11.46
2022-12-02T17:42:35.000Z,-11.44
2022-12-02T17:47:35.000Z,-11.28
2022-12-02T17:52:34.000Z,-11.35
2022-12-02T17:57:35.000Z,-11.42
2022-12-02T18:02:35.000Z,-11.47
2022-12-02T18:07:36.000Z,-11.44
2022-12-02T18:12:35.000Z,-11.44
2022-12-02T18:17:34.000Z,-11.23
2022-12-02T18:22:35.000Z,-11.22
2022-12-02T18:27:35.000Z,-11.12
2022-12-02T18:32:34.000Z,-11.03
2022-12-02T18:37:35.000Z,-11
2022-12-02T18:42:34.000Z,-10.96
2022-12-02T18:47:35.000Z,-11.09
2022-12-02T18:52:34.000Z,-10.91
2022-12-02T18:57:35.000Z,-11.09
2022-12-02T19:02:34.000Z,-11.26
2022-12-02T19:07:35.000Z,-11.35
2022-12-02T19:12:35.000Z,-11.41
2022-12-02T19:17:34.000Z,-11.49
2022-12-02T19:22:35.000Z,-11.55
2022-12-02T19:28:04.000Z,-11.64
2022-12-02T19:32:34.000Z,-11.64
2022-12-02T19:37:35.000Z,-11.6
2022-12-02T19:42:35.000Z,-11.57
2022-12-02T19:47:35.000Z,-11.69
2022-12-02T19:52:35.000Z,-11.74
2022-12-02T19:57:34.000Z,-11.78
2022-12-02T20:02:35.000Z,-11.76
2022-12-02T20:07:34.000Z,-11.8
2022-12-02T20:12:35.000Z,-11.75
2022-12-02T20:17:35.000Z,-11.88
2022-12-02T20:22:34.000Z,-11.87
2022-12-02T20:27:35.000Z,-12.07
2022-12-02T20:32:35.000Z,-12.02
2022-12-02T20:42:35.000Z,-12.07
2022-12-02T20:47:34.000Z,-12.18
2022-12-02T20:52:35.000Z,-12.18
2022-12-02T20:57:34.000Z,-12.2
2022-12-02T21:02:34.000Z,-12.23
2022-12-02T21:07:35.000Z,-12.12
2022-12-02T21:12:35.000Z,-12.09
2022-12-02T21:17:35.000Z,-12.13
2022-12-02T21:22:34.000Z,-12.24
2022-12-02T21:27:35.000Z,-12.31
2022-12-02T21:32:34.000Z,-12.23
2022-12-02T21:37:35.000Z,-12.18
2022-12-02T21:42:34.000Z,-12.23
2022-12-02T21:52:34.000Z,-12.37
2022-12-02T21:57:34.000Z,-12.33
2022-12-02T22:02:35.000Z,-12.35
2022-12-02T22:07:34.000Z,-12.49
2022-12-02T22:12:35.000Z,-12.4
2022-12-02T22:17:34.000Z,-12.38
2022-12-02T22:22:35.000Z,-12.38
2022-12-02T22:27:34.000Z,-12.36
2022-12-02T22:32:35.000Z,-12.55
2022-12-02T22:37:34.000Z,-12.46
2022-12-02T22:42:34.000Z,-12.51
2022-12-02T22:47:35.000Z,-12.49
2022-12-02T22:52:35.000Z,-12.53
2022-12-02T22:57:35.000Z,-12.54
2022-12-02T23:02:35.000Z,-12.48
2022-12-02T23:07:34.000Z,-12.51
2022-12-02T23:12:35.000Z,-12.6
2022-12-02T23:17:35.000Z,-12.6
2022-12-02T23:22:34.000Z,-12.61
2022-12-02T23:27:35.000Z,-12.65
2022-12-02T23:32:35.000Z,-12.75
2022-12-02T23:37:34.000Z,-12.75
2022-12-02T23:42:35.000Z,-12.75
2022-12-02T23:47:34.000Z,-12.74
2022-12-02T23:52:35.000Z,-12.72
2022-12-02T23:57:34.000Z,-12.84
